createdAt,value
2023-02-19T00:01:13.448Z,9.19
2023-02-19T00:04:46.257Z,9.22
2023-02-19T00:08:15.123Z,9.20
2023-02-19T00:11:44.050Z,9.19
2023-02-19T00:15:12.789Z,9.19
2023-02-19T00:18:41.723Z,9.18
2023-02-19T00:22:10.996Z,9.17
2023-02-19T00:25:39.666Z,9.16
2023-02-19T00:29:00.922Z,9.17
2023-02-19T00:32:29.824Z,9.18
2023-02-19T00:35:58.849Z,9.21
2023-02-19T00:39:27.782Z,9.22
2023-02-19T00:42:56.563Z,9.25
2023-02-19T00:46:25.611Z,9.23
2023-02-19T00:49:54.430Z,9.24
2023-02-19T00:53:23.117Z,9.27
2023-02-19T00:56:51.844Z,9.30
2023-02-19T01:00:13.586Z,9.31
2023-02-19T01:03:25.293Z,9.33
2023-02-19T01:06:54.324Z,9.32
2023-02-19T01:10:23.161Z,9.31
2023-02-19T01:13:52.326Z,9.28
2023-02-19T01:17:11.898Z,9.27
2023-02-19T01:20:26.355Z,9.27
2023-02-19T01:23:55.057Z,9.27
2023-02-19T01:27:24.138Z,9.27
2023-02-19T01:30:53.975Z,9.26
2023-02-19T01:34:23.631Z,9.25
2023-02-19T01:37:53.267Z,9.22
2023-02-19T01:41:22.522Z,9.18
2023-02-19T01:44:57.607Z,9.15
2023-02-19T01:48:26.964Z,9.11
2023-02-19T01:51:59.055Z,9.09
2023-02-19T01:55:27.749Z,9.07
2023-02-19T01:58:56.957Z,9.04
2023-02-19T02:02:24.917Z,9.02
2023-02-19T02:05:59.938Z,9.00
2023-02-19T02:09:26.616Z,8.98
2023-02-19T02:12:55.508Z,8.96
2023-02-19T02:16:24.464Z,8.94
2023-02-19T02:20:04.977Z,8.91
2023-02-19T02:23:39.483Z,8.86
2023-02-19T02:27:06.905Z,8.83
2023-02-19T02:30:35.576Z,8.79
2023-02-19T02:34:05.030Z,8.77
2023-02-19T02:37:34.394Z,8.73
2023-02-19T02:41:03.331Z,8.69
2023-02-19T02:44:22.857Z,8.64
2023-02-19T02:48:03.970Z,8.56
2023-02-19T02:51:36.865Z,8.52
2023-02-19T02:55:24.419Z,8.45
2023-02-19T02:58:53.576Z,8.31
2023-02-19T03:02:38.556Z,8.19
2023-02-19T03:06:13.300Z,8.09
2023-02-19T03:09:41.934Z,8.00
2023-02-19T03:13:15.229Z,7.94
2023-02-19T03:16:43.007Z,7.90
2023-02-19T03:20:11.895Z,7.83
2023-02-19T03:23:41.174Z,7.73
2023-02-19T03:27:10.329Z,7.67
2023-02-19T03:30:39.720Z,7.59
2023-02-19T03:34:11.875Z,7.53
2023-02-19T03:37:41.189Z,7.51
2023-02-19T03:41:10.621Z,7.48
2023-02-19T03:44:39.988Z,7.45
2023-02-19T03:48:27.458Z,7.42
2023-02-19T03:51:58.939Z,7.41
2023-02-19T03:55:33.546Z,7.39
2023-02-19T03:59:14.115Z,7.39
2023-02-19T04:02:42.946Z,7.38
2023-02-19T04:06:17.847Z,7.38
2023-02-19T04:09:47.428Z,7.40
2023-02-19T04:13:16.609Z,7.39
2023-02-19T04:16:45.861Z,7.37
2023-02-19T04:20:15.391Z,7.35
2023-02-19T04:23:44.726Z,7.35
2023-02-19T04:27:01.083Z,7.32
2023-02-19T04:30:30.461Z,7.29
2023-02-19T04:33:59.660Z,7.26
2023-02-19T04:37:29.135Z,7.21
2023-02-19T04:40:58.243Z,7.19
2023-02-19T04:44:26.930Z,7.15
2023-02-19T04:47:55.779Z,7.08
2023-02-19T04:51:24.632Z,7.05
2023-02-19T04:54:54.039Z,7.01
2023-02-19T04:58:23.026Z,6.98
2023-02-19T05:01:54.564Z,6.95
2023-02-19T05:05:23.373Z,6.92
2023-02-19T05:08:50.706Z,6.96
2023-02-19T05:12:19.511Z,6.96
2023-02-19T05:15:48.317Z,6.94
2023-02-19T05:19:17.063Z,6.87
2023-02-19T05:22:45.918Z,6.80
2023-02-19T05:26:15.390Z,6.73
2023-02-19T05:29:44.325Z,6.64
2023-02-19T05:33:12.307Z,6.57
2023-02-19T05:36:44.560Z,6.51
2023-02-19T05:40:06.115Z,6.48
2023-02-19T05:43:34.966Z,6.44
2023-02-19T05:47:04.003Z,6.42
2023-02-19T05:50:33.895Z,6.37
2023-02-19T05:54:03.758Z,6.32
2023-02-19T05:57:35.600Z,6.26
2023-02-19T06:01:04.587Z,6.19
2023-02-19T06:04:33.544Z,6.15
2023-02-19T06:08:04.275Z,6.17
2023-02-19T06:11:33.694Z,6.18
2023-02-19T06:15:02.799Z,6.18
2023-02-19T06:18:32.062Z,6.13
2023-02-19T06:22:04.563Z,6.05
2023-02-19T06:25:33.777Z,5.98
2023-02-19T06:29:02.945Z,5.91
2023-02-19T06:32:33.114Z,5.90
2023-02-19T06:35:55.436Z,5.87
2023-02-19T06:39:25.436Z,5.86
2023-02-19T06:42:56.219Z,5.83
2023-02-19T06:46:15.759Z,5.81
2023-02-19T06:49:45.276Z,5.81
2023-02-19T06:53:14.485Z,5.76
2023-02-19T06:56:46.146Z,5.68
2023-02-19T07:00:16.238Z,5.58
2023-02-19T07:03:45.461Z,5.52
2023-02-19T07:07:14.561Z,5.45
2023-02-19T07:10:36.663Z,5.36
2023-02-19T07:14:05.524Z,5.29
2023-02-19T07:17:34.703Z,5.21
2023-02-19T07:21:03.383Z,5.15
2023-02-19T07:24:31.451Z,5.12
2023-02-19T07:27:52.983Z,5.05
2023-02-19T07:31:22.444Z,5.01
2023-02-19T07:34:51.838Z,4.98
2023-02-19T07:38:20.506Z,4.94
2023-02-19T07:41:58.084Z,4.91
2023-02-19T07:45:26.922Z,4.89
2023-02-19T07:48:56.201Z,4.87
2023-02-19T07:52:25.330Z,4.87
2023-02-19T07:55:47.339Z,4.86
2023-02-19T07:59:16.787Z,4.85
2023-02-19T08:02:43.969Z,4.84
2023-02-19T08:06:01.781Z,4.85
2023-02-19T08:09:31.169Z,4.85
2023-02-19T08:12:58.851Z,4.83
2023-02-19T08:16:42.014Z,4.80
2023-02-19T08:20:12.422Z,4.80
2023-02-19T08:23:41.670Z,4.80
2023-02-19T08:27:10.983Z,4.80
2023-02-19T08:30:40.186Z,4.79
2023-02-19T08:34:09.560Z,4.79
2023-02-19T08:37:38.869Z,4.77
2023-02-19T08:41:08.636Z,4.76
2023-02-19T08:44:38.294Z,4.76
2023-02-19T08:48:07.849Z,4.76
2023-02-19T08:51:37.258Z,4.78
2023-02-19T08:55:06.713Z,4.81
2023-02-19T08:58:36.101Z,4.85
2023-02-19T09:05:47.326Z,4.92
2023-02-19T09:09:17.005Z,4.96
2023-02-19T09:12:36.954Z,5.00
2023-02-19T09:16:06.285Z,5.04
2023-02-19T09:19:35.524Z,5.07
2023-02-19T09:23:04.703Z,5.10
2023-02-19T09:26:33.634Z,5.13
2023-02-19T09:29:53.173Z,5.18
2023-02-19T09:33:22.587Z,5.23
2023-02-19T09:36:52.119Z,5.26
2023-02-19T09:40:21.473Z,5.29
2023-02-19T09:43:45.997Z,5.33
2023-02-19T09:47:18.051Z,5.35
2023-02-19T09:50:49.876Z,5.38
2023-02-19T09:54:22.058Z,5.43
2023-02-19T09:57:53.530Z,5.48
2023-02-19T10:01:25.087Z,5.51
2023-02-19T10:04:46.936Z,5.55
2023-02-19T10:08:22.247Z,5.59
2023-02-19T10:11:51.599Z,5.61
2023-02-19T10:15:41.550Z,5.63
2023-02-19T10:19:10.968Z,5.65
2023-02-19T10:22:40.167Z,5.68
2023-02-19T10:26:12.023Z,5.69
2023-02-19T10:29:44.434Z,5.71
2023-02-19T10:33:19.224Z,5.73
2023-02-19T10:36:54.671Z,5.74
2023-02-19T10:40:39.545Z,5.75
2023-02-19T10:44:09.319Z,5.77
2023-02-19T10:47:37.955Z,5.78
2023-02-19T10:51:13.657Z,5.78
2023-02-19T10:54:49.305Z,5.78
2023-02-19T10:58:18.933Z,5.78
2023-02-19T11:01:54.287Z,5.78
2023-02-19T11:05:23.646Z,5.77
2023-02-19T11:08:53.069Z,5.77
2023-02-19T11:12:31.549Z,5.76
2023-02-19T11:16:03.121Z,5.76
2023-02-19T11:19:35.691Z,5.76
2023-02-19T11:23:13.805Z,5.77
2023-02-19T11:26:43.430Z,5.77
2023-02-19T11:30:15.869Z,5.78
2023-02-19T11:33:44.973Z,5.78
2023-02-19T11:37:23.052Z,5.78
2023-02-19T11:40:52.297Z,5.78
2023-02-19T11:44:40.024Z,5.79
2023-02-19T11:48:18.061Z,5.79
2023-02-19T11:51:51.490Z,5.82
2023-02-19T11:55:33.217Z,5.87
2023-02-19T11:59:03.472Z,5.93
2023-02-19T12:02:41.801Z,6.01
2023-02-19T12:06:13.865Z,6.09
2023-02-19T12:09:52.680Z,6.13
2023-02-19T12:13:45.473Z,6.17
2023-02-19T12:17:25.959Z,6.23
2023-02-19T12:21:03.722Z,6.29
2023-02-19T12:24:30.476Z,6.32
2023-02-19T12:28:16.897Z,6.35
2023-02-19T12:31:49.054Z,6.40
2023-02-19T12:35:20.777Z,6.40
2023-02-19T12:39:04.893Z,6.42
2023-02-19T12:42:35.836Z,6.41
2023-02-19T12:46:16.762Z,6.42
2023-02-19T12:49:48.303Z,6.42
2023-02-19T12:53:17.263Z,6.44
2023-02-19T12:56:46.207Z,6.46
2023-02-19T13:00:24.521Z,6.47
2023-02-19T13:03:56.964Z,6.51
2023-02-19T13:07:25.882Z,6.55
2023-02-19T13:11:13.066Z,6.58
2023-02-19T13:14:43.328Z,6.61
2023-02-19T13:18:27.072Z,6.66
2023-02-19T13:21:54.708Z,6.68
2023-02-19T13:25:30.134Z,6.73
2023-02-19T13:29:08.044Z,6.77
2023-02-19T13:32:45.506Z,6.75
2023-02-19T13:36:31.631Z,6.77
2023-02-19T13:40:01.053Z,6.82
2023-02-19T13:43:35.825Z,6.84
2023-02-19T13:47:05.078Z,6.85
2023-02-19T13:50:34.336Z,6.89
2023-02-19T13:53:59.936Z,6.94
2023-02-19T13:57:32.762Z,6.93
2023-02-19T14:00:59.690Z,6.95
2023-02-19T14:04:31.343Z,7.00
2023-02-19T14:08:09.163Z,7.02
2023-02-19T14:11:38.724Z,7.02
2023-02-19T14:15:10.250Z,7.03
2023-02-19T14:18:34.613Z,7.08
2023-02-19T14:22:18.658Z,7.12
2023-02-19T14:25:47.978Z,7.14
2023-02-19T14:29:15.665Z,7.16
2023-02-19T14:32:50.951Z,7.20
2023-02-19T14:36:19.832Z,7.22
2023-02-19T14:39:55.481Z,7.23
2023-02-19T14:43:11.282Z,7.23
2023-02-19T14:46:43.442Z,7.23
2023-02-19T14:50:34.144Z,7.23
2023-02-19T14:54:03.452Z,7.23
2023-02-19T14:57:32.970Z,7.21
2023-02-19T15:01:04.808Z,7.21
2023-02-19T15:04:34.075Z,7.21
2023-02-19T15:08:06.516Z,7.20
2023-02-19T15:11:35.730Z,7.19
2023-02-19T15:15:05.378Z,7.19
2023-02-19T15:18:34.492Z,7.18
2023-02-19T15:22:06.696Z,7.16
2023-02-19T15:25:35.182Z,7.15
2023-02-19T15:29:22.478Z,7.14
2023-02-19T15:32:51.751Z,7.13
2023-02-19T15:36:20.869Z,7.13
2023-02-19T15:39:50.104Z,7.12
2023-02-19T15:43:19.433Z,7.13
2023-02-19T15:46:48.864Z,7.15
2023-02-19T15:50:08.425Z,7.16
2023-02-19T15:53:43.521Z,7.16
2023-02-19T15:57:19.385Z,7.17
2023-02-19T16:00:37.289Z,7.17
2023-02-19T16:04:06.638Z,7.16
2023-02-19T16:07:38.008Z,7.15
2023-02-19T16:11:07.051Z,7.15
2023-02-19T16:14:36.371Z,7.16
2023-02-19T16:18:03.285Z,7.15
2023-02-19T16:21:32.240Z,7.17
2023-02-19T16:25:04.772Z,7.20
2023-02-19T16:28:36.581Z,7.22
2023-02-19T16:32:12.263Z,7.24
2023-02-19T16:35:44.422Z,7.25
2023-02-19T16:39:16.090Z,7.27
2023-02-19T16:42:50.578Z,7.30
2023-02-19T16:46:19.417Z,7.32
2023-02-19T16:49:48.463Z,7.33
2023-02-19T16:53:17.835Z,7.34
2023-02-19T16:56:46.808Z,7.35
2023-02-19T17:00:15.523Z,7.36
2023-02-19T17:03:44.947Z,7.38
2023-02-19T17:07:13.742Z,7.39
2023-02-19T17:10:42.537Z,7.38
2023-02-19T17:14:03.391Z,7.39
2023-02-19T17:17:32.658Z,7.40
2023-02-19T17:21:01.939Z,7.41
2023-02-19T17:24:31.142Z,7.42
2023-02-19T17:27:59.959Z,7.44
2023-02-19T17:31:16.783Z,7.45
2023-02-19T17:34:45.698Z,7.47
2023-02-19T17:38:15.127Z,7.51
2023-02-19T17:41:44.214Z,7.52
2023-02-19T17:45:13.085Z,7.53
2023-02-19T17:48:42.059Z,7.59
2023-02-19T17:52:11.082Z,7.65
2023-02-19T17:55:40.919Z,7.72
2023-02-19T17:59:17.986Z,7.77
2023-02-19T18:02:46.987Z,7.82
2023-02-19T18:06:15.634Z,7.86
2023-02-19T18:09:50.217Z,7.89
2023-02-19T18:13:18.984Z,7.95
2023-02-19T18:16:49.852Z,8.00
2023-02-19T18:20:18.995Z,8.06
2023-02-19T18:23:48.128Z,8.10
2023-02-19T18:27:09.832Z,8.13
2023-02-19T18:30:39.042Z,8.16
2023-02-19T18:34:08.224Z,8.19
2023-02-19T18:37:37.500Z,8.21
2023-02-19T18:41:06.814Z,8.23
2023-02-19T18:44:35.867Z,8.26
2023-02-19T18:48:04.974Z,8.28
2023-02-19T18:51:34.421Z,8.32
2023-02-19T18:55:05.173Z,8.32
2023-02-19T18:58:34.186Z,8.36
2023-02-19T19:02:02.641Z,8.37
2023-02-19T19:05:31.783Z,8.39
2023-02-19T19:09:00.728Z,8.41
2023-02-19T19:12:29.835Z,8.42
2023-02-19T19:15:59.108Z,8.43
2023-02-19T19:19:28.326Z,8.43
2023-02-19T19:22:56.946Z,8.43
2023-02-19T19:26:26.207Z,8.45
2023-02-19T19:29:54.943Z,8.48
2023-02-19T19:33:23.725Z,8.48
2023-02-19T19:36:52.678Z,8.47
2023-02-19T19:40:14.586Z,8.49
2023-02-19T19:43:43.381Z,8.48
2023-02-19T19:47:12.385Z,8.50
2023-02-19T19:50:34.018Z,8.49
2023-02-19T19:54:05.803Z,8.48
2023-02-19T19:57:34.903Z,8.48
2023-02-19T20:01:04.460Z,8.47
2023-02-19T20:04:33.827Z,8.45
2023-02-19T20:08:03.172Z,8.44
2023-02-19T20:11:25.329Z,8.42
2023-02-19T20:14:54.154Z,8.40
2023-02-19T20:18:15.468Z,8.40
2023-02-19T20:21:44.213Z,8.41
2023-02-19T20:25:13.684Z,8.41
2023-02-19T20:28:31.867Z,8.40
2023-02-19T20:32:01.040Z,8.42
2023-02-19T20:36:08.365Z,8.45
2023-02-19T20:39:19.576Z,8.48
2023-02-19T20:42:48.850Z,8.52
2023-02-19T20:46:18.076Z,8.55
2023-02-19T20:49:47.133Z,8.62
2023-02-19T20:53:18.958Z,8.67
2023-02-19T20:56:47.806Z,8.72
2023-02-19T21:00:17.225Z,8.75
2023-02-19T21:03:46.430Z,8.78
2023-02-19T21:07:15.385Z,8.82
2023-02-19T21:10:43.801Z,8.83
2023-02-19T21:14:13.304Z,8.85
2023-02-19T21:18:12.467Z,8.88
2023-02-19T21:21:31.496Z,8.94
2023-02-19T21:25:00.683Z,9.01
2023-02-19T21:28:30.135Z,9.08
2023-02-19T21:31:59.411Z,9.15
2023-02-19T21:35:28.722Z,9.21
2023-02-19T21:38:55.836Z,9.24
2023-02-19T21:42:25.167Z,9.26
2023-02-19T21:45:54.588Z,9.28
2023-02-19T21:49:23.922Z,9.27
2023-02-19T21:52:53.440Z,9.28
2023-02-19T21:56:18.696Z,9.30
2023-02-19T21:59:48.667Z,9.34
2023-02-19T22:03:17.994Z,9.36
2023-02-19T22:06:47.573Z,9.37
2023-02-19T22:10:16.904Z,9.38
2023-02-19T22:13:46.344Z,9.39
2023-02-19T22:17:15.761Z,9.41
2023-02-19T22:20:45.146Z,9.42
2023-02-19T22:24:06.403Z,9.40
2023-02-19T22:27:26.737Z,9.40
2023-02-19T22:30:55.469Z,9.37
2023-02-19T22:34:24.896Z,9.33
2023-02-19T22:37:54.303Z,9.32
2023-02-19T22:41:23.155Z,9.30
2023-02-19T22:44:52.060Z,9.27
2023-02-19T22:48:19.278Z,9.29
2023-02-19T22:51:44.502Z,9.29
2023-02-19T22:55:14.177Z,9.30
2023-02-19T22:58:41.816Z,9.31
2023-02-19T23:02:49.939Z,9.32
2023-02-19T23:05:55.176Z,9.32
2023-02-19T23:09:27.116Z,9.32
2023-02-19T23:12:56.500Z,9.33
2023-02-19T23:16:25.744Z,9.33
2023-02-19T23:19:54.506Z,9.35
2023-02-19T23:23:23.693Z,9.34
2023-02-19T23:26:53.338Z,9.35
2023-02-19T23:30:22.173Z,9.36
2023-02-19T23:33:51.400Z,9.36
2023-02-19T23:37:26.206Z,9.37
2023-02-19T23:40:55.504Z,9.35
2023-02-19T23:44:24.655Z,9.35
2023-02-19T23:47:53.637Z,9.35
2023-02-19T23:51:22.889Z,9.32
2023-02-19T23:54:52.371Z,9.32
2023-02-19T23:58:21.693Z,9.33
